sensor_id;sensor_type;location;lat;lon;timestamp;pressure;altitude;pressure_sealevel;temperature;humidity
60061;BME280;45933;51.336;12.612;2023-03-26T00:01:10;98875.28;;;9.77;57.74
60061;BME280;45933;51.336;12.612;2023-03-26T00:03:38;98869.09;;;9.82;56.97
60061;BME280;45933;51.336;12.612;2023-03-26T00:06:06;98869.16;;;9.79;57.06
60061;BME280;45933;51.336;12.612;2023-03-26T00:08:33;98865.84;;;9.73;57.13
60061;BME280;45933;51.336;12.612;2023-03-26T00:10:58;98874.44;;;9.75;56.97
60061;BME280;45933;51.336;12.612;2023-03-26T00:13:24;98881.31;;;9.79;56.78
60061;BME280;45933;51.336;12.612;2023-03-26T00:15:50;98871.84;;;9.75;57.22
60061;BME280;45933;51.336;12.612;2023-03-26T00:18:20;98882.25;;;9.76;57.03
60061;BME280;45933;51.336;12.612;2023-03-26T00:20:48;98882.22;;;9.78;57.02
60061;BME280;45933;51.336;12.612;2023-03-26T00:23:14;98896.06;;;9.78;57.62
60061;BME280;45933;51.336;12.612;2023-03-26T00:25:39;98889.19;;;9.76;57.85
60061;BME280;45933;51.336;12.612;2023-03-26T00:28:09;98875.44;;;9.71;58.17
60061;BME280;45933;51.336;12.612;2023-03-26T00:30:35;98873.66;;;9.73;57.97
60061;BME280;45933;51.336;12.612;2023-03-26T00:33:03;98880.59;;;9.72;58.50
60061;BME280;45933;51.336;12.612;2023-03-26T00:35:28;98881.53;;;9.68;58.72
60061;BME280;45933;51.336;12.612;2023-03-26T00:37:54;98884.19;;;9.66;58.80
60061;BME280;45933;51.336;12.612;2023-03-26T00:40:20;98882.53;;;9.62;59.14
60061;BME280;45933;51.336;12.612;2023-03-26T00:42:45;98880.88;;;9.60;59.23
60061;BME280;45933;51.336;12.612;2023-03-26T00:45:10;98876.72;;;9.50;60.18
60061;BME280;45933;51.336;12.612;2023-03-26T00:47:36;98878.50;;;9.48;60.81
60061;BME280;45933;51.336;12.612;2023-03-26T00:50:02;98869.69;;;9.53;60.10
60061;BME280;45933;51.336;12.612;2023-03-26T00:52:28;98868.16;;;9.45;60.25
60061;BME280;45933;51.336;12.612;2023-03-26T00:54:54;98879.34;;;9.50;60.40
60061;BME280;45933;51.336;12.612;2023-03-26T00:57:20;98862.88;;;9.48;60.35
60061;BME280;45933;51.336;12.612;2023-03-26T00:59:47;98858.56;;;9.47;60.31
60061;BME280;45933;51.336;12.612;2023-03-26T01:02:15;98871.53;;;9.50;60.33
60061;BME280;45933;51.336;12.612;2023-03-26T01:04:44;98858.66;;;9.42;60.80
60061;BME280;45933;51.336;12.612;2023-03-26T01:07:12;98862.03;;;9.47;60.65
60061;BME280;45933;51.336;12.612;2023-03-26T01:09:40;98868.22;;;9.41;60.42
60061;BME280;45933;51.336;12.612;2023-03-26T01:12:12;98867.44;;;9.36;60.61
60061;BME280;45933;51.336;12.612;2023-03-26T01:14:38;98867.44;;;9.36;60.63
60061;BME280;45933;51.336;12.612;2023-03-26T01:17:05;98871.88;;;9.31;61.06
60061;BME280;45933;51.336;12.612;2023-03-26T01:22:25;98866.69;;;9.31;61.37
60061;BME280;45933;51.336;12.612;2023-03-26T01:24:51;98861.44;;;9.33;60.99
60061;BME280;45933;51.336;12.612;2023-03-26T01:27:39;98856.31;;;9.30;61.06
60061;BME280;45933;51.336;12.612;2023-03-26T01:35:33;98859.81;;;9.27;60.95
60061;BME280;45933;51.336;12.612;2023-03-26T01:38:26;98861.44;;;9.33;60.75
60061;BME280;45933;51.336;12.612;2023-03-26T01:41:07;98853.84;;;9.24;61.70
60061;BME280;45933;51.336;12.612;2023-03-26T01:43:38;98877.16;;;9.28;61.09
60061;BME280;45933;51.336;12.612;2023-03-26T01:46:09;98860.88;;;9.17;62.40
60061;BME280;45933;51.336;12.612;2023-03-26T01:48:42;98866.00;;;9.23;61.98
60061;BME280;45933;51.336;12.612;2023-03-26T01:51:09;98869.47;;;9.22;61.73
60061;BME280;45933;51.336;12.612;2023-03-26T01:53:39;98865.97;;;9.25;61.33
60061;BME280;45933;51.336;12.612;2023-03-26T01:56:11;98871.13;;;9.26;61.19
60061;BME280;45933;51.336;12.612;2023-03-26T01:59:28;98866.69;;;9.31;61.26
60061;BME280;45933;51.336;12.612;2023-03-26T02:02:09;98862.41;;;9.29;61.20
60061;BME280;45933;51.336;12.612;2023-03-26T02:09:51;98866.84;;;9.24;61.20
60061;BME280;45933;51.336;12.612;2023-03-26T02:12:20;98859.91;;;9.23;60.76
60061;BME280;45933;51.336;12.612;2023-03-26T02:14:47;98853.00;;;9.23;61.01
60061;BME280;45933;51.336;12.612;2023-03-26T02:17:12;98867.75;;;9.21;61.19
60061;BME280;45933;51.336;12.612;2023-03-26T02:19:38;98862.50;;;9.24;60.92
60061;BME280;45933;51.336;12.612;2023-03-26T02:22:08;98861.75;;;9.19;61.22
60061;BME280;45933;51.336;12.612;2023-03-26T02:24:35;98860.03;;;9.16;60.99
60061;BME280;45933;51.336;12.612;2023-03-26T02:27:00;98865.25;;;9.16;61.46
60061;BME280;45933;51.336;12.612;2023-03-26T02:29:26;98849.75;;;9.10;61.66
60061;BME280;45933;51.336;12.612;2023-03-26T02:31:51;98857.50;;;9.13;61.63
60061;BME280;45933;51.336;12.612;2023-03-26T02:34:17;98857.44;;;9.16;60.87
60061;BME280;45933;51.336;12.612;2023-03-26T02:36:42;98859.25;;;9.13;61.04
60061;BME280;45933;51.336;12.612;2023-03-26T02:39:08;98855.97;;;9.03;61.53
60061;BME280;45933;51.336;12.612;2023-03-26T02:41:38;98861.94;;;9.07;61.36
60061;BME280;45933;51.336;12.612;2023-03-26T02:44:03;98864.66;;;9.02;61.68
60061;BME280;45933;51.336;12.612;2023-03-26T02:46:31;98865.63;;;8.95;62.23
60061;BME280;45933;51.336;12.612;2023-03-26T02:48:56;98856.00;;;9.02;61.64
60061;BME280;45933;51.336;12.612;2023-03-26T02:51:23;98856.00;;;9.00;61.72
60061;BME280;45933;51.336;12.612;2023-03-26T02:53:49;98849.91;;;9.03;61.51
60061;BME280;45933;51.336;12.612;2023-03-26T02:56:15;98850.91;;;8.96;62.27
60061;BME280;45933;51.336;12.612;2023-03-26T02:58:40;98851.78;;;8.95;62.13
60061;BME280;45933;51.336;12.612;2023-03-26T03:01:06;98855.31;;;8.92;62.19
60061;BME280;45933;51.336;12.612;2023-03-26T03:03:32;98849.47;;;8.81;63.09
60061;BME280;45933;51.336;12.612;2023-03-26T03:05:58;98842.38;;;8.89;62.80
60061;BME280;45933;51.336;12.612;2023-03-26T03:08:26;98836.25;;;8.93;62.25
60061;BME280;45933;51.336;12.612;2023-03-26T03:11:05;98839.78;;;8.89;62.55
60061;BME280;45933;51.336;12.612;2023-03-26T03:13:31;98839.94;;;8.81;63.29
60061;BME280;45933;51.336;12.612;2023-03-26T03:15:56;98832.91;;;8.85;62.90
60061;BME280;45933;51.336;12.612;2023-03-26T03:18:21;98842.44;;;8.86;62.53
60061;BME280;45933;51.336;12.612;2023-03-26T03:20:47;98850.31;;;8.81;62.78
60061;BME280;45933;51.336;12.612;2023-03-26T03:23:12;98848.47;;;8.88;62.74
60061;BME280;45933;51.336;12.612;2023-03-26T03:25:38;98845.91;;;8.85;63.07
60061;BME280;45933;51.336;12.612;2023-03-26T03:28:05;98838.19;;;8.82;63.50
60061;BME280;45933;51.336;12.612;2023-03-26T03:30:31;98837.25;;;8.84;62.78
60061;BME280;45933;51.336;12.612;2023-03-26T03:32:56;98836.31;;;8.88;62.96
60061;BME280;45933;51.336;12.612;2023-03-26T03:35:23;98833.72;;;8.88;63.14
60061;BME280;45933;51.336;12.612;2023-03-26T03:37:48;98844.06;;;8.90;62.76
60061;BME280;45933;51.336;12.612;2023-03-26T03:40:14;98822.47;;;8.88;62.98
60061;BME280;45933;51.336;12.612;2023-03-26T03:42:39;98833.63;;;8.93;61.92
60061;BME280;45933;51.336;12.612;2023-03-26T03:45:05;98829.38;;;8.89;62.85
60061;BME280;45933;51.336;12.612;2023-03-26T03:47:31;98821.66;;;8.86;62.90
60061;BME280;45933;51.336;12.612;2023-03-26T03:49:56;98820.84;;;8.82;62.97
60061;BME280;45933;51.336;12.612;2023-03-26T03:52:24;98820.78;;;8.85;63.09
60061;BME280;45933;51.336;12.612;2023-03-26T03:54:50;98823.38;;;8.85;62.71
60061;BME280;45933;51.336;12.612;2023-03-26T03:57:15;98826.81;;;8.87;62.79
60061;BME280;45933;51.336;12.612;2023-03-26T03:59:43;98831.94;;;8.92;62.00
60061;BME280;45933;51.336;12.612;2023-03-26T04:02:09;98832.94;;;8.83;62.67
60061;BME280;45933;51.336;12.612;2023-03-26T04:04:35;98825.06;;;8.88;62.67
60061;BME280;45933;51.336;12.612;2023-03-26T04:07:02;98834.66;;;8.86;62.78
60061;BME280;45933;51.336;12.612;2023-03-26T04:09:27;98828.59;;;8.84;62.72
60061;BME280;45933;51.336;12.612;2023-03-26T04:11:53;98835.59;;;8.80;62.77
60061;BME280;45933;51.336;12.612;2023-03-26T04:14:18;98829.41;;;8.87;62.13
60061;BME280;45933;51.336;12.612;2023-03-26T04:16:43;98832.88;;;8.88;61.69
60061;BME280;45933;51.336;12.612;2023-03-26T04:19:08;98826.78;;;8.89;61.67
60061;BME280;45933;51.336;12.612;2023-03-26T04:21:34;98828.56;;;8.85;61.53
60061;BME280;45933;51.336;12.612;2023-03-26T04:24:02;98840.69;;;8.86;61.80
60061;BME280;45933;51.336;12.612;2023-03-26T04:26:27;98845.91;;;8.85;61.81
60061;BME280;45933;51.336;12.612;2023-03-26T04:29:01;98829.53;;;8.80;61.85
60061;BME280;45933;51.336;12.612;2023-03-26T04:31:28;98824.31;;;8.83;61.89
60061;BME280;45933;51.336;12.612;2023-03-26T04:33:56;98829.53;;;8.81;61.56
60061;BME280;45933;51.336;12.612;2023-03-26T04:36:28;98828.69;;;8.79;61.36
60061;BME280;45933;51.336;12.612;2023-03-26T04:38:55;98832.22;;;8.77;61.71
60061;BME280;45933;51.336;12.612;2023-03-26T04:41:22;98832.19;;;8.78;61.50
60061;BME280;45933;51.336;12.612;2023-03-26T04:43:51;98819.16;;;8.80;60.86
60061;BME280;45933;51.336;12.612;2023-03-26T04:46:18;98829.69;;;8.72;61.89
60061;BME280;45933;51.336;12.612;2023-03-26T04:48:46;98831.44;;;8.72;61.48
60061;BME280;45933;51.336;12.612;2023-03-26T04:51:13;98832.22;;;8.77;61.98
60061;BME280;45933;51.336;12.612;2023-03-26T04:53:57;98830.44;;;8.79;61.09
60061;BME280;45933;51.336;12.612;2023-03-26T04:56:44;98838.19;;;8.82;61.25
60061;BME280;45933;51.336;12.612;2023-03-26T04:59:16;98827.91;;;8.76;61.39
60061;BME280;45933;51.336;12.612;2023-03-26T05:01:42;98831.41;;;8.73;61.20
60061;BME280;45933;51.336;12.612;2023-03-26T05:04:11;98833.16;;;8.73;61.52
60061;BME280;45933;51.336;12.612;2023-03-26T05:06:38;98833.19;;;8.71;61.54
60061;BME280;45933;51.336;12.612;2023-03-26T05:09:03;98822.88;;;8.67;61.89
60061;BME280;45933;51.336;12.612;2023-03-26T05:11:29;98828.00;;;8.70;61.79
60061;BME280;45933;51.336;12.612;2023-03-26T05:13:54;98825.47;;;8.67;62.00
60061;BME280;45933;51.336;12.612;2023-03-26T05:16:21;98830.59;;;8.71;61.40
60061;BME280;45933;51.336;12.612;2023-03-26T05:18:48;98825.47;;;8.67;61.67
60061;BME280;45933;51.336;12.612;2023-03-26T05:21:13;98822.00;;;8.66;61.76
60061;BME280;45933;51.336;12.612;2023-03-26T05:23:39;98826.34;;;8.64;61.77
60061;BME280;45933;51.336;12.612;2023-03-26T05:26:04;98833.22;;;8.68;61.67
60061;BME280;45933;51.336;12.612;2023-03-26T05:28:31;98828.00;;;8.70;61.98
60061;BME280;45933;51.336;12.612;2023-03-26T05:30:57;98823.75;;;8.66;62.04
60061;BME280;45933;51.336;12.612;2023-03-26T05:33:22;98836.66;;;8.69;61.92
60061;BME280;45933;51.336;12.612;2023-03-26T05:35:58;98832.28;;;8.72;62.07
60061;BME280;45933;51.336;12.612;2023-03-26T05:38:24;98835.66;;;8.77;61.57
60061;BME280;45933;51.336;12.612;2023-03-26T05:40:49;98829.63;;;8.75;62.03
60061;BME280;45933;51.336;12.612;2023-03-26T05:43:14;98832.09;;;8.83;61.69
60061;BME280;45933;51.336;12.612;2023-03-26T05:45:40;98832.00;;;8.87;61.51
60061;BME280;45933;51.336;12.612;2023-03-26T05:48:05;98825.09;;;8.86;61.67
60061;BME280;45933;51.336;12.612;2023-03-26T05:50:31;98831.97;;;8.89;62.18
60061;BME280;45933;51.336;12.612;2023-03-26T05:52:56;98834.44;;;8.95;61.56
60061;BME280;45933;51.336;12.612;2023-03-26T05:55:21;98830.16;;;8.94;61.92
60061;BME280;45933;51.336;12.612;2023-03-26T05:57:46;98825.56;;;9.07;61.36
60061;BME280;45933;51.336;12.612;2023-03-26T06:00:12;98833.31;;;9.10;61.50
60061;BME280;45933;51.336;12.612;2023-03-26T06:02:39;98833.34;;;9.07;61.62
60061;BME280;45933;51.336;12.612;2023-03-26T06:05:06;98829.69;;;9.17;61.56
60061;BME280;45933;51.336;12.612;2023-03-26T06:07:31;98817.44;;;9.22;61.06
60061;BME280;45933;51.336;12.612;2023-03-26T06:09:58;98826.16;;;9.21;61.55
60061;BME280;45933;51.336;12.612;2023-03-26T06:12:23;98822.59;;;9.25;61.07
60061;BME280;45933;51.336;12.612;2023-03-26T06:14:48;98821.66;;;9.28;61.00
60061;BME280;45933;51.336;12.612;2023-03-26T06:17:14;98810.50;;;9.24;60.75
60061;BME280;45933;51.336;12.612;2023-03-26T06:19:39;98809.44;;;9.33;60.85
60061;BME280;45933;51.336;12.612;2023-03-26T06:22:04;98815.53;;;9.33;60.47
60061;BME280;45933;51.336;12.612;2023-03-26T06:24:31;98809.38;;;9.36;60.54
60061;BME280;45933;51.336;12.612;2023-03-26T06:26:57;98817.91;;;9.42;60.83
60061;BME280;45933;51.336;12.612;2023-03-26T06:29:22;98816.91;;;9.48;60.05
60061;BME280;45933;51.336;12.612;2023-03-26T06:31:47;98822.91;;;9.52;60.30
60061;BME280;45933;51.336;12.612;2023-03-26T06:34:13;98814.97;;;9.58;60.01
60061;BME280;45933;51.336;12.612;2023-03-26T06:36:38;98813.31;;;9.55;60.12
60061;BME280;45933;51.336;12.612;2023-03-26T06:39:04;98808.97;;;9.56;60.09
60061;BME280;45933;51.336;12.612;2023-03-26T06:41:32;98826.09;;;9.64;60.04
60061;BME280;45933;51.336;12.612;2023-03-26T06:43:58;98820.91;;;9.64;60.13
60061;BME280;45933;51.336;12.612;2023-03-26T06:46:23;98827.03;;;9.62;60.03
60061;BME280;45933;51.336;12.612;2023-03-26T06:48:49;98820.84;;;9.67;59.98
60061;BME280;45933;51.336;12.612;2023-03-26T06:51:16;98822.50;;;9.72;60.09
60061;BME280;45933;51.336;12.612;2023-03-26T06:53:41;98826.84;;;9.71;59.67
60061;BME280;45933;51.336;12.612;2023-03-26T06:56:07;98815.53;;;9.72;59.87
60061;BME280;45933;51.336;12.612;2023-03-26T06:58:32;98814.75;;;9.68;59.55
60061;BME280;45933;51.336;12.612;2023-03-26T07:00:58;98811.13;;;9.76;59.44
60061;BME280;45933;51.336;12.612;2023-03-26T07:03:23;98816.25;;;9.79;59.58
60061;BME280;45933;51.336;12.612;2023-03-26T07:05:48;98809.28;;;9.79;59.62
60061;BME280;45933;51.336;12.612;2023-03-26T07:08:14;98806.69;;;9.79;59.53
60061;BME280;45933;51.336;12.612;2023-03-26T07:10:40;98818.78;;;9.82;59.42
60061;BME280;45933;51.336;12.612;2023-03-26T07:13:05;98811.75;;;9.87;59.23
60061;BME280;45933;51.336;12.612;2023-03-26T07:15:31;98807.28;;;9.92;59.27
60061;BME280;45933;51.336;12.612;2023-03-26T07:17:56;98805.38;;;9.99;59.43
60061;BME280;45933;51.336;12.612;2023-03-26T07:20:22;98802.63;;;10.05;59.31
60061;BME280;45933;51.336;12.612;2023-03-26T07:22:47;98798.22;;;10.07;59.16
60061;BME280;45933;51.336;12.612;2023-03-26T07:25:13;98801.56;;;10.13;58.78
60061;BME280;45933;51.336;12.612;2023-03-26T07:30:29;98794.38;;;10.25;58.52
60061;BME280;45933;51.336;12.612;2023-03-26T07:35:43;98783.47;;;10.43;58.63
60061;BME280;45933;51.336;12.612;2023-03-26T07:38:32;98783.19;;;10.54;58.40
60061;BME280;45933;51.336;12.612;2023-03-26T07:46:31;98769.03;;;10.64;58.01
60061;BME280;45933;51.336;12.612;2023-03-26T07:48:59;98763.72;;;10.68;57.48
60061;BME280;45933;51.336;12.612;2023-03-26T07:51:26;98766.06;;;10.78;57.40
60061;BME280;45933;51.336;12.612;2023-03-26T07:53:52;98766.16;;;10.74;57.13
60061;BME280;45933;51.336;12.612;2023-03-26T07:56:20;98758.03;;;10.85;56.79
60061;BME280;45933;51.336;12.612;2023-03-26T08:06:36;98754.66;;;11.13;56.46
60061;BME280;45933;51.336;12.612;2023-03-26T08:12:14;98755.34;;;11.19;55.80
60061;BME280;45933;51.336;12.612;2023-03-26T08:17:39;98740.75;;;11.42;55.98
60061;BME280;45933;51.336;12.612;2023-03-26T08:20:56;98741.22;;;11.55;56.01
60061;BME280;45933;51.336;12.612;2023-03-26T08:26:30;98735.72;;;11.64;55.00
60061;BME280;45933;51.336;12.612;2023-03-26T08:29:30;98740.03;;;11.65;54.45
60061;BME280;45933;51.336;12.612;2023-03-26T08:32:00;98733.22;;;11.61;54.20
60061;BME280;45933;51.336;12.612;2023-03-26T08:34:27;98733.81;;;11.69;54.49
60061;BME280;45933;51.336;12.612;2023-03-26T08:36:53;98744.13;;;11.73;54.52
60061;BME280;45933;51.336;12.612;2023-03-26T08:39:18;98731.06;;;11.73;54.13
60061;BME280;45933;51.336;12.612;2023-03-26T08:48:05;98726.19;;;11.91;54.38
60061;BME280;45933;51.336;12.612;2023-03-26T08:50:58;98730.41;;;11.95;53.61
60061;BME280;45933;51.336;12.612;2023-03-26T09:07:55;98720.09;;;12.17;52.78
60061;BME280;45933;51.336;12.612;2023-03-26T09:25:09;98692.84;;;12.97;51.20
60061;BME280;45933;51.336;12.612;2023-03-26T09:28:05;98696.06;;;13.27;51.52
60061;BME280;45933;51.336;12.612;2023-03-26T09:33:55;98681.34;;;13.69;50.30
60061;BME280;45933;51.336;12.612;2023-03-26T09:36:52;98688.88;;;13.98;50.49
60061;BME280;45933;51.336;12.612;2023-03-26T09:42:17;98680.78;;;14.25;48.08
60061;BME280;45933;51.336;12.612;2023-03-26T09:45:03;98679.97;;;14.43;48.71
60061;BME280;45933;51.336;12.612;2023-03-26T09:47:59;98681.66;;;14.44;47.63
60061;BME280;45933;51.336;12.612;2023-03-26T09:50:51;98672.03;;;14.45;47.56
60061;BME280;45933;51.336;12.612;2023-03-26T09:53:43;98684.84;;;14.32;46.77
60061;BME280;45933;51.336;12.612;2023-03-26T10:02:17;98672.50;;;14.34;46.83
60061;BME280;45933;51.336;12.612;2023-03-26T10:05:07;98664.06;;;14.27;46.41
60061;BME280;45933;51.336;12.612;2023-03-26T10:10:31;98656.84;;;14.32;46.55
60061;BME280;45933;51.336;12.612;2023-03-26T10:13:04;98653.78;;;14.23;47.17
60061;BME280;45933;51.336;12.612;2023-03-26T10:15:51;98652.06;;;14.42;47.52
60061;BME280;45933;51.336;12.612;2023-03-26T10:18:33;98647.22;;;14.53;47.06
60061;BME280;45933;51.336;12.612;2023-03-26T10:24:03;98630.47;;;14.95;46.11
60061;BME280;45933;51.336;12.612;2023-03-26T10:26:54;98630.88;;;15.05;45.18
60061;BME280;45933;51.336;12.612;2023-03-26T10:29:28;98620.41;;;15.41;44.50
60061;BME280;45933;51.336;12.612;2023-03-26T10:32:35;98614.91;;;15.64;44.63
60061;BME280;45933;51.336;12.612;2023-03-26T10:38:06;98608.66;;;15.84;44.52
60061;BME280;45933;51.336;12.612;2023-03-26T10:40:43;98601.63;;;15.85;42.85
60061;BME280;45933;51.336;12.612;2023-03-26T10:48:46;98596.13;;;16.24;43.27
60061;BME280;45933;51.336;12.612;2023-03-26T10:51:30;98599.28;;;16.31;42.53
60061;BME280;45933;51.336;12.612;2023-03-26T10:54:22;98599.75;;;16.55;43.04
60061;BME280;45933;51.336;12.612;2023-03-26T10:56:50;98586.91;;;16.48;40.59
60061;BME280;45933;51.336;12.612;2023-03-26T10:59:16;98591.19;;;16.51;40.47
60061;BME280;45933;51.336;12.612;2023-03-26T11:04:38;98591.00;;;16.54;40.83
60061;BME280;45933;51.336;12.612;2023-03-26T11:07:21;98589.47;;;16.50;39.93
60061;BME280;45933;51.336;12.612;2023-03-26T11:09:59;98584.81;;;16.55;41.34
60061;BME280;45933;51.336;12.612;2023-03-26T11:12:45;98583.19;;;16.53;40.82
60061;BME280;45933;51.336;12.612;2023-03-26T11:15:35;98580.38;;;16.73;41.81
60061;BME280;45933;51.336;12.612;2023-03-26T11:18:17;98573.59;;;16.85;40.17
60061;BME280;45933;51.336;12.612;2023-03-26T11:21:07;98575.78;;;17.08;41.75
60061;BME280;45933;51.336;12.612;2023-03-26T11:23:39;98577.66;;;17.22;39.02
60061;BME280;45933;51.336;12.612;2023-03-26T11:26:17;98575.34;;;17.32;39.27
60061;BME280;45933;51.336;12.612;2023-03-26T11:29:05;98581.69;;;17.43;39.14
60061;BME280;45933;51.336;12.612;2023-03-26T11:31:59;98575.06;;;17.52;39.25
60061;BME280;45933;51.336;12.612;2023-03-26T11:34:37;98576.41;;;17.43;38.87
60061;BME280;45933;51.336;12.612;2023-03-26T11:37:14;98575.19;;;17.35;39.43
60061;BME280;45933;51.336;12.612;2023-03-26T11:39:48;98576.06;;;17.19;38.78
60061;BME280;45933;51.336;12.612;2023-03-26T11:42:16;98559.22;;;17.06;37.68
60061;BME280;45933;51.336;12.612;2023-03-26T11:44:49;98562.13;;;17.02;38.27
60061;BME280;45933;51.336;12.612;2023-03-26T11:47:29;98562.56;;;16.94;38.37
60061;BME280;45933;51.336;12.612;2023-03-26T11:49:56;98560.59;;;16.82;37.02
60061;BME280;45933;51.336;12.612;2023-03-26T11:52:24;98557.34;;;16.77;38.34
60061;BME280;45933;51.336;12.612;2023-03-26T11:54:50;98555.13;;;16.69;38.26
60061;BME280;45933;51.336;12.612;2023-03-26T11:57:20;98560.53;;;16.66;39.00
60061;BME280;45933;51.336;12.612;2023-03-26T11:59:50;98561.56;;;16.47;38.98
60061;BME280;45933;51.336;12.612;2023-03-26T12:02:37;98560.84;;;16.44;39.09
60061;BME280;45933;51.336;12.612;2023-03-26T12:05:13;98552.59;;;16.34;39.50
60061;BME280;45933;51.336;12.612;2023-03-26T12:07:45;98565.56;;;16.21;40.09
60061;BME280;45933;51.336;12.612;2023-03-26T12:10:34;98566.97;;;16.11;39.79
60061;BME280;45933;51.336;12.612;2023-03-26T12:13:21;98558.72;;;16.02;40.59
60061;BME280;45933;51.336;12.612;2023-03-26T12:15:56;98555.09;;;15.87;40.53
60061;BME280;45933;51.336;12.612;2023-03-26T12:18:24;98553.00;;;15.76;40.27
60061;BME280;45933;51.336;12.612;2023-03-26T12:21:14;98543.28;;;15.78;40.29
60061;BME280;45933;51.336;12.612;2023-03-26T12:24:00;98542.50;;;15.76;41.14
60061;BME280;45933;51.336;12.612;2023-03-26T12:26:36;98543.84;;;15.67;40.47
60061;BME280;45933;51.336;12.612;2023-03-26T12:29:12;98535.19;;;15.65;41.81
60061;BME280;45933;51.336;12.612;2023-03-26T12:32:02;98522.50;;;15.74;41.34
60061;BME280;45933;51.336;12.612;2023-03-26T12:34:29;98529.78;;;15.68;41.58
60061;BME280;45933;51.336;12.612;2023-03-26T12:36:58;98525.38;;;15.69;41.14
60061;BME280;45933;51.336;12.612;2023-03-26T12:39:36;98530.41;;;15.74;40.86
60061;BME280;45933;51.336;12.612;2023-03-26T12:42:05;98533.44;;;15.66;40.62
60061;BME280;45933;51.336;12.612;2023-03-26T12:44:45;98521.34;;;15.62;40.91
60061;BME280;45933;51.336;12.612;2023-03-26T12:47:19;98532.69;;;15.45;41.11
60061;BME280;45933;51.336;12.612;2023-03-26T12:49:46;98532.88;;;15.23;41.61
60061;BME280;45933;51.336;12.612;2023-03-26T12:52:31;98537.22;;;15.24;41.83
60061;BME280;45933;51.336;12.612;2023-03-26T12:57:44;98533.47;;;14.94;42.31
60061;BME280;45933;51.336;12.612;2023-03-26T13:13:54;98552.97;;;13.91;47.49
60061;BME280;45933;51.336;12.612;2023-03-26T13:16:34;98552.84;;;13.73;48.47
60061;BME280;45933;51.336;12.612;2023-03-26T13:19:05;98544.34;;;13.48;49.00
60061;BME280;45933;51.336;12.612;2023-03-26T13:21:54;98536.09;;;13.37;48.42
60061;BME280;45933;51.336;12.612;2023-03-26T13:30:19;98530.13;;;13.11;49.39
60061;BME280;45933;51.336;12.612;2023-03-26T13:33:05;98521.00;;;12.99;51.15
60061;BME280;45933;51.336;12.612;2023-03-26T13:35:47;98520.09;;;13.00;50.87
60061;BME280;45933;51.336;12.612;2023-03-26T13:38:25;98515.69;;;13.01;51.52
60061;BME280;45933;51.336;12.612;2023-03-26T13:41:10;98512.16;;;13.02;51.19
60061;BME280;45933;51.336;12.612;2023-03-26T13:46:41;98519.25;;;13.00;51.29
60061;BME280;45933;51.336;12.612;2023-03-26T13:49:09;98528.91;;;12.98;51.61
60061;BME280;45933;51.336;12.612;2023-03-26T13:54:14;98525.22;;;12.81;52.10
60061;BME280;45933;51.336;12.612;2023-03-26T13:56:51;98530.06;;;12.69;52.46
60061;BME280;45933;51.336;12.612;2023-03-26T13:59:30;98536.03;;;12.72;52.12
60061;BME280;45933;51.336;12.612;2023-03-26T14:02:07;98527.06;;;12.56;52.97
60061;BME280;45933;51.336;12.612;2023-03-26T14:04:39;98527.66;;;12.41;53.54
60061;BME280;45933;51.336;12.612;2023-03-26T14:07:17;98527.31;;;12.26;53.69
60061;BME280;45933;51.336;12.612;2023-03-26T14:10:06;98514.78;;;12.13;54.00
60061;BME280;45933;51.336;12.612;2023-03-26T14:12:47;98526.22;;;12.09;53.50
60061;BME280;45933;51.336;12.612;2023-03-26T14:26:05;98532.38;;;11.83;54.76
60061;BME280;45933;51.336;12.612;2023-03-26T14:31:22;98525.63;;;11.75;55.54
60061;BME280;45933;51.336;12.612;2023-03-26T14:34:10;98520.91;;;11.62;56.18
60061;BME280;45933;51.336;12.612;2023-03-26T14:37:04;98522.66;;;11.61;56.38
60061;BME280;45933;51.336;12.612;2023-03-26T14:39:48;98520.84;;;11.63;56.68
60061;BME280;45933;51.336;12.612;2023-03-26T14:42:38;98511.72;;;11.75;55.98
60061;BME280;45933;51.336;12.612;2023-03-26T14:45:33;98515.09;;;11.78;55.29
60061;BME280;45933;51.336;12.612;2023-03-26T14:48:33;98503.91;;;11.75;56.92
60061;BME280;45933;51.336;12.612;2023-03-26T14:53:55;98506.88;;;11.64;56.03
60061;BME280;45933;51.336;12.612;2023-03-26T15:08:46;98501.41;;;11.47;55.96
60061;BME280;45933;51.336;12.612;2023-03-26T15:11:40;98507.75;;;11.40;56.17
60061;BME280;45933;51.336;12.612;2023-03-26T15:17:18;98506.03;;;11.12;57.93
60061;BME280;45933;51.336;12.612;2023-03-26T15:23:37;98497.81;;;11.24;56.78
60061;BME280;45933;51.336;12.612;2023-03-26T15:26:53;98505.75;;;11.21;57.51
60061;BME280;45933;51.336;12.612;2023-03-26T15:29:45;98511.38;;;11.09;58.41
60061;BME280;45933;51.336;12.612;2023-03-26T15:32:24;98509.09;;;10.98;58.55
60061;BME280;45933;51.336;12.612;2023-03-26T15:38:14;98505.25;;;11.10;58.16
60061;BME280;45933;51.336;12.612;2023-03-26T15:49:18;98511.31;;;11.11;59.21
60061;BME280;45933;51.336;12.612;2023-03-26T15:51:57;98506.25;;;11.06;60.07
60061;BME280;45933;51.336;12.612;2023-03-26T15:54:52;98504.41;;;11.10;58.80
60061;BME280;45933;51.336;12.612;2023-03-26T15:57:29;98505.50;;;11.03;59.46
60061;BME280;45933;51.336;12.612;2023-03-26T16:00:17;98509.88;;;11.02;59.30
60061;BME280;45933;51.336;12.612;2023-03-26T16:03:19;98502.13;;;10.99;59.38
60061;BME280;45933;51.336;12.612;2023-03-26T16:05:56;98504.81;;;10.97;59.85
60061;BME280;45933;51.336;12.612;2023-03-26T16:08:35;98499.66;;;10.94;60.46
60061;BME280;45933;51.336;12.612;2023-03-26T16:11:05;98502.38;;;10.91;60.09
60061;BME280;45933;51.336;12.612;2023-03-26T16:14:10;98504.03;;;10.94;60.22
60061;BME280;45933;51.336;12.612;2023-03-26T16:16:48;98505.50;;;11.03;59.75
60061;BME280;45933;51.336;12.612;2023-03-26T16:21:54;98510.72;;;11.03;59.47
60061;BME280;45933;51.336;12.612;2023-03-26T16:24:25;98506.59;;;10.95;60.36
60061;BME280;45933;51.336;12.612;2023-03-26T16:29:21;98501.34;;;10.97;60.02